sensor_id;sensor_type;location;lat;lon;timestamp;P1;durP1;ratioP1;P2;durP2;ratioP2
20431;SDS011;10375;49.136;10.366;2024-01-10T00:02:18;18.57;;;7.33;;
20431;SDS011;10375;49.136;10.366;2024-01-10T00:04:46;10.93;;;6.70;;
20431;SDS011;10375;49.136;10.366;2024-01-10T00:07:13;21.63;;;7.70;;
20431;SDS011;10375;49.136;10.366;2024-01-10T00:09:40;25.23;;;7.80;;
20431;SDS011;10375;49.136;10.366;2024-01-10T00:12:08;30.93;;;7.77;;
20431;SDS011;10375;49.136;10.366;2024-01-10T00:14:35;11.77;;;6.63;;
20431;SDS011;10375;49.136;10.366;2024-01-10T00:17:02;10.60;;;5.87;;
20431;SDS011;10375;49.136;10.366;2024-01-10T00:19:30;17.80;;;6.93;;
20431;SDS011;10375;49.136;10.366;2024-01-10T00:21:57;13.63;;;7.60;;
20431;SDS011;10375;49.136;10.366;2024-01-10T00:24:24;16.80;;;7.23;;
20431;SDS011;10375;49.136;10.366;2024-01-10T00:26:52;15.00;;;10.83;;
20431;SDS011;10375;49.136;10.366;2024-01-10T00:29:19;18.27;;;6.93;;
20431;SDS011;10375;49.136;10.366;2024-01-10T00:31:46;14.60;;;7.23;;
20431;SDS011;10375;49.136;10.366;2024-01-10T00:34:14;14.53;;;7.70;;
20431;SDS011;10375;49.136;10.366;2024-01-10T00:36:41;19.27;;;7.03;;
20431;SDS011;10375;49.136;10.366;2024-01-10T00:39:08;17.00;;;7.93;;
20431;SDS011;10375;49.136;10.366;2024-01-10T00:41:35;19.10;;;8.17;;
20431;SDS011;10375;49.136;10.366;2024-01-10T00:44:03;14.47;;;8.30;;
20431;SDS011;10375;49.136;10.366;2024-01-10T00:46:30;24.90;;;9.17;;
20431;SDS011;10375;49.136;10.366;2024-01-10T00:48:57;14.97;;;6.97;;
20431;SDS011;10375;49.136;10.366;2024-01-10T00:51:24;12.50;;;7.17;;
20431;SDS011;10375;49.136;10.366;2024-01-10T00:53:51;12.23;;;7.17;;
20431;SDS011;10375;49.136;10.366;2024-01-10T00:56:19;16.60;;;8.53;;
20431;SDS011;10375;49.136;10.366;2024-01-10T00:58:46;13.23;;;6.50;;
20431;SDS011;10375;49.136;10.366;2024-01-10T01:01:13;10.37;;;7.03;;
20431;SDS011;10375;49.136;10.366;2024-01-10T01:03:40;15.30;;;7.60;;
20431;SDS011;10375;49.136;10.366;2024-01-10T01:06:07;15.10;;;8.10;;
20431;SDS011;10375;49.136;10.366;2024-01-10T01:08:35;16.67;;;6.93;;
20431;SDS011;10375;49.136;10.366;2024-01-10T01:11:02;13.00;;;7.00;;
20431;SDS011;10375;49.136;10.366;2024-01-10T01:13:29;11.93;;;6.43;;
20431;SDS011;10375;49.136;10.366;2024-01-10T01:15:56;12.93;;;6.57;;
20431;SDS011;10375;49.136;10.366;2024-01-10T01:18:23;13.03;;;7.13;;
20431;SDS011;10375;49.136;10.366;2024-01-10T01:20:51;13.27;;;7.67;;
20431;SDS011;10375;49.136;10.366;2024-01-10T01:23:18;14.90;;;8.37;;
20431;SDS011;10375;49.136;10.366;2024-01-10T01:26:01;16.87;;;7.47;;
20431;SDS011;10375;49.136;10.366;2024-01-10T01:28:30;16.73;;;7.37;;
20431;SDS011;10375;49.136;10.366;2024-01-10T01:30:58;17.87;;;8.00;;
20431;SDS011;10375;49.136;10.366;2024-01-10T01:33:25;16.70;;;7.23;;
20431;SDS011;10375;49.136;10.366;2024-01-10T01:35:52;13.00;;;7.63;;
20431;SDS011;10375;49.136;10.366;2024-01-10T01:38:20;17.33;;;8.13;;
20431;SDS011;10375;49.136;10.366;2024-01-10T01:40:48;16.57;;;8.53;;
20431;SDS011;10375;49.136;10.366;2024-01-10T01:43:22;16.90;;;7.17;;
20431;SDS011;10375;49.136;10.366;2024-01-10T01:45:51;16.20;;;8.63;;
20431;SDS011;10375;49.136;10.366;2024-01-10T01:48:21;24.33;;;7.37;;
20431;SDS011;10375;49.136;10.366;2024-01-10T01:50:51;21.83;;;8.00;;
20431;SDS011;10375;49.136;10.366;2024-01-10T01:53:29;15.43;;;8.20;;
20431;SDS011;10375;49.136;10.366;2024-01-10T01:55:57;17.40;;;7.57;;
20431;SDS011;10375;49.136;10.366;2024-01-10T01:58:27;14.37;;;7.63;;
20431;SDS011;10375;49.136;10.366;2024-01-10T02:00:54;14.73;;;7.77;;
20431;SDS011;10375;49.136;10.366;2024-01-10T02:03:21;14.60;;;7.73;;
20431;SDS011;10375;49.136;10.366;2024-01-10T02:05:49;16.23;;;7.17;;
20431;SDS011;10375;49.136;10.366;2024-01-10T02:08:16;30.90;;;8.40;;
20431;SDS011;10375;49.136;10.366;2024-01-10T02:10:44;17.50;;;7.20;;
20431;SDS011;10375;49.136;10.366;2024-01-10T02:13:11;18.50;;;8.27;;
20431;SDS011;10375;49.136;10.366;2024-01-10T02:15:39;24.97;;;8.10;;
20431;SDS011;10375;49.136;10.366;2024-01-10T02:18:06;16.90;;;7.17;;
20431;SDS011;10375;49.136;10.366;2024-01-10T02:20:34;17.77;;;7.60;;
20431;SDS011;10375;49.136;10.366;2024-01-10T02:23:01;21.10;;;8.40;;
20431;SDS011;10375;49.136;10.366;2024-01-10T02:25:29;14.90;;;8.33;;
20431;SDS011;10375;49.136;10.366;2024-01-10T02:27:56;16.20;;;8.23;;
20431;SDS011;10375;49.136;10.366;2024-01-10T02:30:23;17.77;;;7.90;;
20431;SDS011;10375;49.136;10.366;2024-01-10T02:32:50;16.70;;;7.43;;
20431;SDS011;10375;49.136;10.366;2024-01-10T02:35:17;12.60;;;7.17;;
20431;SDS011;10375;49.136;10.366;2024-01-10T02:37:45;22.20;;;7.23;;
20431;SDS011;10375;49.136;10.366;2024-01-10T02:40:12;13.27;;;7.70;;
20431;SDS011;10375;49.136;10.366;2024-01-10T02:42:39;12.27;;;6.20;;
20431;SDS011;10375;49.136;10.366;2024-01-10T02:45:06;14.57;;;6.83;;
20431;SDS011;10375;49.136;10.366;2024-01-10T02:47:34;12.37;;;7.17;;
20431;SDS011;10375;49.136;10.366;2024-01-10T02:50:03;13.03;;;7.00;;
20431;SDS011;10375;49.136;10.366;2024-01-10T02:52:31;13.33;;;6.70;;
20431;SDS011;10375;49.136;10.366;2024-01-10T02:54:58;15.03;;;8.17;;
20431;SDS011;10375;49.136;10.366;2024-01-10T02:57:26;12.97;;;7.10;;
20431;SDS011;10375;49.136;10.366;2024-01-10T02:59:53;18.10;;;7.37;;
20431;SDS011;10375;49.136;10.366;2024-01-10T03:02:21;10.87;;;6.80;;
20431;SDS011;10375;49.136;10.366;2024-01-10T03:04:50;13.63;;;7.70;;
20431;SDS011;10375;49.136;10.366;2024-01-10T03:07:17;16.17;;;7.40;;
20431;SDS011;10375;49.136;10.366;2024-01-10T03:09:44;9.60;;;5.50;;
20431;SDS011;10375;49.136;10.366;2024-01-10T03:12:11;13.93;;;6.90;;
20431;SDS011;10375;49.136;10.366;2024-01-10T03:14:39;12.13;;;6.80;;
20431;SDS011;10375;49.136;10.366;2024-01-10T03:17:06;16.37;;;8.07;;
20431;SDS011;10375;49.136;10.366;2024-01-10T03:19:33;11.57;;;7.10;;
20431;SDS011;10375;49.136;10.366;2024-01-10T03:22:00;12.57;;;6.83;;
20431;SDS011;10375;49.136;10.366;2024-01-10T03:24:28;13.20;;;6.80;;
20431;SDS011;10375;49.136;10.366;2024-01-10T03:26:55;13.77;;;6.63;;
20431;SDS011;10375;49.136;10.366;2024-01-10T03:29:22;15.27;;;7.10;;
20431;SDS011;10375;49.136;10.366;2024-01-10T03:31:49;15.40;;;7.40;;
20431;SDS011;10375;49.136;10.366;2024-01-10T03:34:17;14.43;;;7.20;;
20431;SDS011;10375;49.136;10.366;2024-01-10T03:36:44;15.27;;;8.30;;
20431;SDS011;10375;49.136;10.366;2024-01-10T03:39:11;14.43;;;8.17;;
20431;SDS011;10375;49.136;10.366;2024-01-10T03:41:39;13.70;;;7.23;;
20431;SDS011;10375;49.136;10.366;2024-01-10T03:44:06;14.77;;;7.27;;
20431;SDS011;10375;49.136;10.366;2024-01-10T03:46:33;14.20;;;7.77;;
20431;SDS011;10375;49.136;10.366;2024-01-10T03:49:01;15.47;;;6.90;;
20431;SDS011;10375;49.136;10.366;2024-01-10T03:51:28;20.17;;;8.63;;
20431;SDS011;10375;49.136;10.366;2024-01-10T03:53:55;18.10;;;6.93;;
20431;SDS011;10375;49.136;10.366;2024-01-10T03:56:23;15.13;;;7.73;;
20431;SDS011;10375;49.136;10.366;2024-01-10T03:58:50;16.17;;;6.87;;
20431;SDS011;10375;49.136;10.366;2024-01-10T04:01:21;12.27;;;7.10;;
20431;SDS011;10375;49.136;10.366;2024-01-10T04:03:50;14.53;;;7.17;;
20431;SDS011;10375;49.136;10.366;2024-01-10T04:06:17;14.60;;;7.93;;
20431;SDS011;10375;49.136;10.366;2024-01-10T04:08:44;17.53;;;7.83;;
20431;SDS011;10375;49.136;10.366;2024-01-10T04:11:11;11.00;;;6.27;;
20431;SDS011;10375;49.136;10.366;2024-01-10T04:13:38;22.03;;;7.73;;
20431;SDS011;10375;49.136;10.366;2024-01-10T04:16:06;16.03;;;6.00;;
20431;SDS011;10375;49.136;10.366;2024-01-10T04:18:33;16.67;;;7.37;;
20431;SDS011;10375;49.136;10.366;2024-01-10T04:21:00;14.10;;;7.33;;
20431;SDS011;10375;49.136;10.366;2024-01-10T04:23:28;16.97;;;8.20;;
20431;SDS011;10375;49.136;10.366;2024-01-10T04:25:57;17.10;;;7.87;;
20431;SDS011;10375;49.136;10.366;2024-01-10T04:28:24;15.03;;;6.67;;
20431;SDS011;10375;49.136;10.366;2024-01-10T04:30:51;9.53;;;6.03;;
20431;SDS011;10375;49.136;10.366;2024-01-10T04:33:18;17.83;;;7.93;;
20431;SDS011;10375;49.136;10.366;2024-01-10T04:35:46;14.00;;;7.23;;
20431;SDS011;10375;49.136;10.366;2024-01-10T04:38:13;14.10;;;7.87;;
20431;SDS011;10375;49.136;10.366;2024-01-10T04:40:40;19.27;;;6.97;;
20431;SDS011;10375;49.136;10.366;2024-01-10T04:43:08;17.90;;;7.43;;
20431;SDS011;10375;49.136;10.366;2024-01-10T04:45:35;30.80;;;8.07;;
20431;SDS011;10375;49.136;10.366;2024-01-10T04:48:02;13.67;;;6.40;;
20431;SDS011;10375;49.136;10.366;2024-01-10T04:50:30;16.37;;;7.53;;
20431;SDS011;10375;49.136;10.366;2024-01-10T04:52:57;17.60;;;7.93;;
20431;SDS011;10375;49.136;10.366;2024-01-10T04:55:24;21.93;;;6.53;;
20431;SDS011;10375;49.136;10.366;2024-01-10T04:57:51;15.13;;;7.03;;
20431;SDS011;10375;49.136;10.366;2024-01-10T05:00:18;21.47;;;8.40;;
20431;SDS011;10375;49.136;10.366;2024-01-10T05:02:46;15.47;;;6.90;;
20431;SDS011;10375;49.136;10.366;2024-01-10T05:05:14;18.40;;;6.87;;
20431;SDS011;10375;49.136;10.366;2024-01-10T05:07:41;17.40;;;7.30;;
20431;SDS011;10375;49.136;10.366;2024-01-10T05:10:09;16.53;;;8.40;;
20431;SDS011;10375;49.136;10.366;2024-01-10T05:12:36;20.67;;;8.70;;
20431;SDS011;10375;49.136;10.366;2024-01-10T05:15:03;16.47;;;8.93;;
20431;SDS011;10375;49.136;10.366;2024-01-10T05:17:31;16.57;;;8.47;;
20431;SDS011;10375;49.136;10.366;2024-01-10T05:19:58;16.00;;;8.33;;
20431;SDS011;10375;49.136;10.366;2024-01-10T05:22:25;14.67;;;7.23;;
20431;SDS011;10375;49.136;10.366;2024-01-10T05:24:53;19.87;;;9.40;;
20431;SDS011;10375;49.136;10.366;2024-01-10T05:27:20;15.87;;;8.17;;
20431;SDS011;10375;49.136;10.366;2024-01-10T05:29:47;14.43;;;7.53;;
20431;SDS011;10375;49.136;10.366;2024-01-10T05:32:15;20.37;;;8.67;;
20431;SDS011;10375;49.136;10.366;2024-01-10T05:34:43;11.87;;;7.00;;
20431;SDS011;10375;49.136;10.366;2024-01-10T05:37:11;19.77;;;7.43;;
20431;SDS011;10375;49.136;10.366;2024-01-10T05:39:38;18.03;;;7.13;;
20431;SDS011;10375;49.136;10.366;2024-01-10T05:42:05;16.97;;;7.53;;
20431;SDS011;10375;49.136;10.366;2024-01-10T05:44:33;15.27;;;8.33;;
20431;SDS011;10375;49.136;10.366;2024-01-10T05:47:00;14.83;;;7.83;;
20431;SDS011;10375;49.136;10.366;2024-01-10T05:49:27;18.17;;;9.60;;
20431;SDS011;10375;49.136;10.366;2024-01-10T05:51:54;28.90;;;11.53;;
20431;SDS011;10375;49.136;10.366;2024-01-10T05:54:21;36.47;;;13.67;;
20431;SDS011;10375;49.136;10.366;2024-01-10T05:56:49;33.83;;;13.47;;
20431;SDS011;10375;49.136;10.366;2024-01-10T05:59:16;21.80;;;10.97;;
20431;SDS011;10375;49.136;10.366;2024-01-10T06:01:43;13.10;;;7.70;;
20431;SDS011;10375;49.136;10.366;2024-01-10T06:04:10;13.67;;;7.23;;
20431;SDS011;10375;49.136;10.366;2024-01-10T06:06:37;16.07;;;5.97;;
20431;SDS011;10375;49.136;10.366;2024-01-10T06:09:05;24.83;;;9.67;;
20431;SDS011;10375;49.136;10.366;2024-01-10T06:11:32;15.37;;;7.10;;
20431;SDS011;10375;49.136;10.366;2024-01-10T06:13:59;14.77;;;7.17;;
20431;SDS011;10375;49.136;10.366;2024-01-10T06:16:27;15.43;;;6.87;;
20431;SDS011;10375;49.136;10.366;2024-01-10T06:18:54;17.67;;;8.60;;
20431;SDS011;10375;49.136;10.366;2024-01-10T06:21:21;19.20;;;7.87;;
20431;SDS011;10375;49.136;10.366;2024-01-10T06:23:48;14.17;;;7.03;;
20431;SDS011;10375;49.136;10.366;2024-01-10T06:26:16;13.97;;;6.97;;
20431;SDS011;10375;49.136;10.366;2024-01-10T06:28:43;13.17;;;6.50;;
20431;SDS011;10375;49.136;10.366;2024-01-10T06:31:10;21.27;;;7.57;;
20431;SDS011;10375;49.136;10.366;2024-01-10T06:33:38;15.00;;;7.83;;
20431;SDS011;10375;49.136;10.366;2024-01-10T06:36:06;15.33;;;6.57;;
20431;SDS011;10375;49.136;10.366;2024-01-10T06:38:34;11.63;;;5.77;;
20431;SDS011;10375;49.136;10.366;2024-01-10T06:41:06;12.97;;;7.23;;
20431;SDS011;10375;49.136;10.366;2024-01-10T06:43:36;17.27;;;8.10;;
20431;SDS011;10375;49.136;10.366;2024-01-10T06:46:03;16.73;;;8.53;;
20431;SDS011;10375;49.136;10.366;2024-01-10T06:48:31;20.13;;;8.37;;
20431;SDS011;10375;49.136;10.366;2024-01-10T06:50:59;16.93;;;9.00;;
20431;SDS011;10375;49.136;10.366;2024-01-10T06:53:26;16.70;;;8.90;;
20431;SDS011;10375;49.136;10.366;2024-01-10T06:55:53;13.27;;;8.00;;
20431;SDS011;10375;49.136;10.366;2024-01-10T06:58:20;18.67;;;8.47;;
20431;SDS011;10375;49.136;10.366;2024-01-10T07:00:47;12.57;;;7.37;;
20431;SDS011;10375;49.136;10.366;2024-01-10T07:03:15;13.40;;;7.00;;
20431;SDS011;10375;49.136;10.366;2024-01-10T07:05:42;23.17;;;8.23;;
20431;SDS011;10375;49.136;10.366;2024-01-10T07:08:11;14.73;;;7.47;;
20431;SDS011;10375;49.136;10.366;2024-01-10T07:10:38;21.67;;;7.23;;
20431;SDS011;10375;49.136;10.366;2024-01-10T07:13:05;26.43;;;9.23;;
20431;SDS011;10375;49.136;10.366;2024-01-10T07:15:33;20.10;;;7.30;;
20431;SDS011;10375;49.136;10.366;2024-01-10T07:18:00;17.83;;;7.50;;
20431;SDS011;10375;49.136;10.366;2024-01-10T07:20:28;17.97;;;7.87;;
20431;SDS011;10375;49.136;10.366;2024-01-10T07:22:56;15.50;;;8.63;;
20431;SDS011;10375;49.136;10.366;2024-01-10T07:25:23;18.37;;;8.80;;
20431;SDS011;10375;49.136;10.366;2024-01-10T07:27:53;25.83;;;8.70;;
20431;SDS011;10375;49.136;10.366;2024-01-10T07:30:20;23.87;;;7.73;;
20431;SDS011;10375;49.136;10.366;2024-01-10T07:35:17;31.00;;;8.40;;
20431;SDS011;10375;49.136;10.366;2024-01-10T07:37:53;18.73;;;8.90;;
20431;SDS011;10375;49.136;10.366;2024-01-10T07:40:21;22.20;;;9.27;;
20431;SDS011;10375;49.136;10.366;2024-01-10T07:42:50;20.50;;;9.30;;
20431;SDS011;10375;49.136;10.366;2024-01-10T07:45:17;49.60;;;11.40;;
20431;SDS011;10375;49.136;10.366;2024-01-10T07:47:44;47.33;;;11.50;;
20431;SDS011;10375;49.136;10.366;2024-01-10T07:50:18;22.83;;;8.90;;
20431;SDS011;10375;49.136;10.366;2024-01-10T07:53:04;74.30;;;11.93;;
20431;SDS011;10375;49.136;10.366;2024-01-10T07:55:31;17.87;;;8.70;;
20431;SDS011;10375;49.136;10.366;2024-01-10T07:57:58;16.13;;;7.90;;
20431;SDS011;10375;49.136;10.366;2024-01-10T08:00:27;12.63;;;7.90;;
20431;SDS011;10375;49.136;10.366;2024-01-10T08:02:54;16.93;;;9.13;;
20431;SDS011;10375;49.136;10.366;2024-01-10T08:05:21;33.87;;;8.77;;
20431;SDS011;10375;49.136;10.366;2024-01-10T08:07:51;19.27;;;8.93;;
20431;SDS011;10375;49.136;10.366;2024-01-10T08:10:18;25.50;;;8.57;;
20431;SDS011;10375;49.136;10.366;2024-01-10T08:12:46;19.93;;;7.40;;
20431;SDS011;10375;49.136;10.366;2024-01-10T08:15:13;12.53;;;8.27;;
20431;SDS011;10375;49.136;10.366;2024-01-10T08:17:41;13.60;;;8.27;;
20431;SDS011;10375;49.136;10.366;2024-01-10T08:20:10;21.43;;;9.90;;
20431;SDS011;10375;49.136;10.366;2024-01-10T08:22:38;13.30;;;8.30;;
20431;SDS011;10375;49.136;10.366;2024-01-10T08:25:05;21.17;;;8.10;;
20431;SDS011;10375;49.136;10.366;2024-01-10T08:27:33;16.37;;;8.43;;
20431;SDS011;10375;49.136;10.366;2024-01-10T08:30:01;20.30;;;9.77;;
20431;SDS011;10375;49.136;10.366;2024-01-10T08:35:03;18.50;;;8.63;;
20431;SDS011;10375;49.136;10.366;2024-01-10T08:37:31;27.90;;;9.77;;
20431;SDS011;10375;49.136;10.366;2024-01-10T08:39:58;23.47;;;10.23;;
20431;SDS011;10375;49.136;10.366;2024-01-10T08:42:27;18.87;;;10.73;;
20431;SDS011;10375;49.136;10.366;2024-01-10T08:44:54;18.53;;;9.80;;
20431;SDS011;10375;49.136;10.366;2024-01-10T08:47:22;23.13;;;10.80;;
20431;SDS011;10375;49.136;10.366;2024-01-10T08:49:50;20.90;;;11.20;;
20431;SDS011;10375;49.136;10.366;2024-01-10T08:52:18;21.40;;;10.00;;
20431;SDS011;10375;49.136;10.366;2024-01-10T08:54:45;23.53;;;10.47;;
20431;SDS011;10375;49.136;10.366;2024-01-10T08:57:12;24.17;;;11.00;;
20431;SDS011;10375;49.136;10.366;2024-01-10T08:59:41;20.83;;;10.67;;
20431;SDS011;10375;49.136;10.366;2024-01-10T09:02:08;19.97;;;10.03;;
20431;SDS011;10375;49.136;10.366;2024-01-10T09:04:36;19.03;;;10.33;;
20431;SDS011;10375;49.136;10.366;2024-01-10T09:07:03;23.43;;;11.73;;
20431;SDS011;10375;49.136;10.366;2024-01-10T09:09:31;17.47;;;9.50;;
20431;SDS011;10375;49.136;10.366;2024-01-10T09:11:58;26.10;;;13.03;;
20431;SDS011;10375;49.136;10.366;2024-01-10T09:14:25;25.23;;;11.70;;
20431;SDS011;10375;49.136;10.366;2024-01-10T09:16:52;23.50;;;11.43;;
20431;SDS011;10375;49.136;10.366;2024-01-10T09:19:19;21.53;;;11.37;;
20431;SDS011;10375;49.136;10.366;2024-01-10T09:21:46;32.07;;;12.30;;
20431;SDS011;10375;49.136;10.366;2024-01-10T09:24:14;18.90;;;11.10;;
20431;SDS011;10375;49.136;10.366;2024-01-10T09:26:54;27.27;;;13.13;;
20431;SDS011;10375;49.136;10.366;2024-01-10T09:29:23;23.33;;;12.53;;
20431;SDS011;10375;49.136;10.366;2024-01-10T09:31:52;37.43;;;11.60;;
20431;SDS011;10375;49.136;10.366;2024-01-10T09:34:21;21.30;;;11.03;;
20431;SDS011;10375;49.136;10.366;2024-01-10T09:36:48;32.17;;;12.17;;
20431;SDS011;10375;49.136;10.366;2024-01-10T09:39:17;20.17;;;11.90;;
20431;SDS011;10375;49.136;10.366;2024-01-10T09:41:47;26.40;;;12.87;;
20431;SDS011;10375;49.136;10.366;2024-01-10T09:44:17;22.40;;;10.97;;
20431;SDS011;10375;49.136;10.366;2024-01-10T09:46:50;29.80;;;13.73;;
20431;SDS011;10375;49.136;10.366;2024-01-10T09:49:18;41.77;;;13.10;;
20431;SDS011;10375;49.136;10.366;2024-01-10T09:51:49;27.13;;;13.57;;
20431;SDS011;10375;49.136;10.366;2024-01-10T09:54:17;35.23;;;14.20;;
20431;SDS011;10375;49.136;10.366;2024-01-10T09:56:46;33.00;;;16.07;;
20431;SDS011;10375;49.136;10.366;2024-01-10T09:59:14;25.00;;;13.60;;
20431;SDS011;10375;49.136;10.366;2024-01-10T10:01:41;32.77;;;13.80;;
20431;SDS011;10375;49.136;10.366;2024-01-10T10:04:10;35.47;;;14.57;;
20431;SDS011;10375;49.136;10.366;2024-01-10T10:06:39;28.13;;;12.43;;
20431;SDS011;10375;49.136;10.366;2024-01-10T10:09:08;28.80;;;14.53;;
20431;SDS011;10375;49.136;10.366;2024-01-10T10:11:36;32.67;;;14.13;;
20431;SDS011;10375;49.136;10.366;2024-01-10T10:14:13;32.83;;;13.73;;
20431;SDS011;10375;49.136;10.366;2024-01-10T10:16:42;30.47;;;13.07;;
20431;SDS011;10375;49.136;10.366;2024-01-10T10:19:10;27.03;;;13.00;;
20431;SDS011;10375;49.136;10.366;2024-01-10T10:21:49;27.90;;;13.90;;
20431;SDS011;10375;49.136;10.366;2024-01-10T10:24:17;31.20;;;14.27;;
20431;SDS011;10375;49.136;10.366;2024-01-10T10:26:54;40.73;;;15.60;;
20431;SDS011;10375;49.136;10.366;2024-01-10T10:29:25;33.17;;;13.70;;
20431;SDS011;10375;49.136;10.366;2024-01-10T10:31:52;25.43;;;12.73;;
20431;SDS011;10375;49.136;10.366;2024-01-10T10:36:57;28.93;;;12.50;;
20431;SDS011;10375;49.136;10.366;2024-01-10T10:39:24;28.50;;;14.13;;
20431;SDS011;10375;49.136;10.366;2024-01-10T10:41:54;25.70;;;12.43;;
20431;SDS011;10375;49.136;10.366;2024-01-10T10:47:06;28.17;;;13.20;;
20431;SDS011;10375;49.136;10.366;2024-01-10T10:52:14;26.33;;;13.30;;
20431;SDS011;10375;49.136;10.366;2024-01-10T10:54:42;26.77;;;14.07;;
20431;SDS011;10375;49.136;10.366;2024-01-10T10:57:12;27.77;;;11.43;;
20431;SDS011;10375;49.136;10.366;2024-01-10T10:59:43;21.90;;;12.20;;
20431;SDS011;10375;49.136;10.366;2024-01-10T11:02:12;28.47;;;13.43;;
20431;SDS011;10375;49.136;10.366;2024-01-10T11:04:56;31.67;;;12.93;;
20431;SDS011;10375;49.136;10.366;2024-01-10T11:07:25;23.13;;;14.03;;
20431;SDS011;10375;49.136;10.366;2024-01-10T11:09:54;25.13;;;13.07;;
20431;SDS011;10375;49.136;10.366;2024-01-10T11:15:41;36.27;;;13.30;;
20431;SDS011;10375;49.136;10.366;2024-01-10T11:21:40;38.97;;;15.40;;
20431;SDS011;10375;49.136;10.366;2024-01-10T11:24:25;30.23;;;13.00;;
20431;SDS011;10375;49.136;10.366;2024-01-10T11:29:45;26.47;;;12.87;;
20431;SDS011;10375;49.136;10.366;2024-01-10T11:37:22;90.70;;;16.17;;
20431;SDS011;10375;49.136;10.366;2024-01-10T11:39:54;118.40;;;20.03;;
20431;SDS011;10375;49.136;10.366;2024-01-10T11:42:40;44.77;;;15.33;;
20431;SDS011;10375;49.136;10.366;2024-01-10T11:45:36;24.97;;;11.67;;
20431;SDS011;10375;49.136;10.366;2024-01-10T11:48:56;110.97;;;22.77;;
20431;SDS011;10375;49.136;10.366;2024-01-10T11:51:47;46.40;;;15.90;;
20431;SDS011;10375;49.136;10.366;2024-01-10T11:54:35;38.60;;;14.20;;
20431;SDS011;10375;49.136;10.366;2024-01-10T11:57:08;43.10;;;15.10;;
20431;SDS011;10375;49.136;10.366;2024-01-10T12:00:03;28.90;;;14.10;;
20431;SDS011;10375;49.136;10.366;2024-01-10T12:02:46;33.13;;;14.37;;
20431;SDS011;10375;49.136;10.366;2024-01-10T12:05:16;36.77;;;14.30;;
20431;SDS011;10375;49.136;10.366;2024-01-10T12:10:50;29.57;;;15.00;;
20431;SDS011;10375;49.136;10.366;2024-01-10T12:13:20;27.70;;;12.67;;
20431;SDS011;10375;49.136;10.366;2024-01-10T12:15:57;28.40;;;15.13;;
20431;SDS011;10375;49.136;10.366;2024-01-10T12:18:26;31.87;;;15.70;;
20431;SDS011;10375;49.136;10.366;2024-01-10T12:21:03;28.53;;;14.17;;
20431;SDS011;10375;49.136;10.366;2024-01-10T12:23:36;30.33;;;15.07;;
20431;SDS011;10375;49.136;10.366;2024-01-10T12:26:31;32.97;;;14.30;;
20431;SDS011;10375;49.136;10.366;2024-01-10T12:29:04;36.53;;;14.37;;
20431;SDS011;10375;49.136;10.366;2024-01-10T12:31:52;30.50;;;13.63;;
20431;SDS011;10375;49.136;10.366;2024-01-10T12:37:00;39.33;;;14.87;;
20431;SDS011;10375;49.136;10.366;2024-01-10T12:39:29;25.20;;;13.97;;
20431;SDS011;10375;49.136;10.366;2024-01-10T12:42:02;39.50;;;14.23;;
20431;SDS011;10375;49.136;10.366;2024-01-10T12:44:45;28.97;;;13.70;;
20431;SDS011;10375;49.136;10.366;2024-01-10T12:47:38;28.40;;;13.90;;
20431;SDS011;10375;49.136;10.366;2024-01-10T12:50:12;29.73;;;13.97;;
20431;SDS011;10375;49.136;10.366;2024-01-10T12:52:42;32.77;;;13.90;;
20431;SDS011;10375;49.136;10.366;2024-01-10T12:56:24;26.33;;;13.40;;
20431;SDS011;10375;49.136;10.366;2024-01-10T12:59:03;27.47;;;13.67;;
20431;SDS011;10375;49.136;10.366;2024-01-10T13:04:48;26.27;;;12.00;;
20431;SDS011;10375;49.136;10.366;2024-01-10T13:10:48;20.73;;;11.90;;
20431;SDS011;10375;49.136;10.366;2024-01-10T13:13:22;29.37;;;15.17;;
20431;SDS011;10375;49.136;10.366;2024-01-10T13:16:02;30.23;;;14.17;;
20431;SDS011;10375;49.136;10.366;2024-01-10T13:21:32;26.77;;;13.57;;
20431;SDS011;10375;49.136;10.366;2024-01-10T13:24:17;22.33;;;12.43;;
20431;SDS011;10375;49.136;10.366;2024-01-10T13:27:24;27.30;;;13.93;;
20431;SDS011;10375;49.136;10.366;2024-01-10T13:30:27;25.50;;;12.47;;
20431;SDS011;10375;49.136;10.366;2024-01-10T13:33:20;27.47;;;13.37;;
20431;SDS011;10375;49.136;10.366;2024-01-10T13:35:52;26.63;;;13.60;;
20431;SDS011;10375;49.136;10.366;2024-01-10T13:38:23;22.70;;;13.70;;
20431;SDS011;10375;49.136;10.366;2024-01-10T13:41:09;24.70;;;14.23;;
20431;SDS011;10375;49.136;10.366;2024-01-10T13:43:37;24.67;;;12.73;;
20431;SDS011;10375;49.136;10.366;2024-01-10T13:50:00;29.47;;;13.10;;
20431;SDS011;10375;49.136;10.366;2024-01-10T14:12:15;29.37;;;13.43;;
20431;SDS011;10375;49.136;10.366;2024-01-10T14:15:47;27.20;;;13.50;;
20431;SDS011;10375;49.136;10.366;2024-01-10T14:18:16;27.17;;;13.83;;
20431;SDS011;10375;49.136;10.366;2024-01-10T14:20:51;34.93;;;15.87;;
20431;SDS011;10375;49.136;10.366;2024-01-10T14:23:22;27.57;;;13.80;;
20431;SDS011;10375;49.136;10.366;2024-01-10T14:25:50;28.37;;;14.07;;
20431;SDS011;10375;49.136;10.366;2024-01-10T14:28:20;34.13;;;15.57;;
20431;SDS011;10375;49.136;10.366;2024-01-10T14:33:48;29.43;;;13.33;;
20431;SDS011;10375;49.136;10.366;2024-01-10T14:36:16;27.13;;;14.27;;
20431;SDS011;10375;49.136;10.366;2024-01-10T14:41:41;29.13;;;13.73;;
20431;SDS011;10375;49.136;10.366;2024-01-10T14:44:11;50.93;;;15.03;;
20431;SDS011;10375;49.136;10.366;2024-01-10T14:46:39;40.60;;;14.70;;
20431;SDS011;10375;49.136;10.366;2024-01-10T14:49:16;45.80;;;14.80;;
20431;SDS011;10375;49.136;10.366;2024-01-10T14:51:43;42.03;;;13.77;;
20431;SDS011;10375;49.136;10.366;2024-01-10T14:54:12;62.10;;;16.17;;
20431;SDS011;10375;49.136;10.366;2024-01-10T14:56:41;82.73;;;17.93;;
20431;SDS011;10375;49.136;10.366;2024-01-10T14:59:11;31.23;;;13.77;;
20431;SDS011;10375;49.136;10.366;2024-01-10T15:01:44;32.43;;;15.43;;
20431;SDS011;10375;49.136;10.366;2024-01-10T15:04:12;30.40;;;15.07;;
20431;SDS011;10375;49.136;10.366;2024-01-10T15:06:45;27.17;;;12.80;;
20431;SDS011;10375;49.136;10.366;2024-01-10T15:09:13;33.57;;;15.13;;
20431;SDS011;10375;49.136;10.366;2024-01-10T15:11:41;30.03;;;13.70;;
20431;SDS011;10375;49.136;10.366;2024-01-10T15:14:09;85.73;;;17.57;;
20431;SDS011;10375;49.136;10.366;2024-01-10T15:16:36;32.57;;;14.87;;
20431;SDS011;10375;49.136;10.366;2024-01-10T15:19:03;24.13;;;13.07;;
20431;SDS011;10375;49.136;10.366;2024-01-10T15:21:34;47.60;;;14.83;;
20431;SDS011;10375;49.136;10.366;2024-01-10T15:24:01;32.40;;;13.23;;
20431;SDS011;10375;49.136;10.366;2024-01-10T15:26:30;36.50;;;15.30;;
20431;SDS011;10375;49.136;10.366;2024-01-10T15:29:02;34.97;;;13.53;;
20431;SDS011;10375;49.136;10.366;2024-01-10T15:31:30;43.33;;;14.87;;
20431;SDS011;10375;49.136;10.366;2024-01-10T15:33:58;30.70;;;13.13;;
20431;SDS011;10375;49.136;10.366;2024-01-10T15:36:26;27.30;;;15.40;;
20431;SDS011;10375;49.136;10.366;2024-01-10T15:38:54;41.10;;;13.67;;
20431;SDS011;10375;49.136;10.366;2024-01-10T15:41:21;36.67;;;12.97;;
20431;SDS011;10375;49.136;10.366;2024-01-10T15:43:49;25.03;;;13.50;;
20431;SDS011;10375;49.136;10.366;2024-01-10T15:46:21;28.90;;;14.23;;